Time;durP1;ratioP1;P1;durP2;ratioP2;P2;SDS_P1;SDS_P2;PMS_P1;PMS_P2;Temp;Humidity;BMP_temperature;BMP_pressure;BME280_temperature;BME280_humidity;BME280_pressure;Samples;Min_cycle;Max_cycle;Signal;HPM_P1;HPM_P2
2023/12/16 00:02:58;;;;;;;35.07;16.30;;;;;;;;;;10360341;28;20200;-74
2023/12/16 00:07:58;;;;;;;32.80;14.93;;;;;;;;;;10360047;28;20550;-74
2023/12/16 00:12:58;;;;;;;27.47;13.77;;;;;;;;;;10357724;28;20189;-74
2023/12/16 00:17:59;;;;;;;24.93;12.50;;;;;;;;;;10354393;28;20444;-74
2023/12/16 00:22:59;;;;;;;26.60;13.63;;;;;;;;;;10359548;28;20556;-74
2023/12/16 00:28:00;;;;;;;21.83;11.97;;;;;;;;;;10353324;28;20721;-74
2023/12/16 00:33:00;;;;;;;26.00;11.70;;;;;;;;;;10359505;28;20276;-74
2023/12/16 00:38:00;;;;;;;23.43;12.23;;;;;;;;;;10358470;28;20565;-74
2023/12/16 00:43:02;;;;;;;25.33;13.03;;;;;;;;;;10354526;28;20189;-74
2023/12/16 00:48:02;;;;;;;30.00;14.23;;;;;;;;;;10358857;28;20217;-75
2023/12/16 00:53:02;;;;;;;27.57;14.23;;;;;;;;;;10358317;28;20201;-74
2023/12/16 00:58:02;;;;;;;35.60;16.53;;;;;;;;;;10358906;28;20280;-74
2023/12/16 01:03:03;;;;;;;37.27;16.53;;;;;;;;;;10357573;28;20598;-74
2023/12/16 01:08:03;;;;;;;34.00;16.07;;;;;;;;;;10358004;28;20225;-74
2023/12/16 01:13:04;;;;;;;34.50;15.50;;;;;;;;;;10356664;28;20647;-74
2023/12/16 01:18:04;;;;;;;28.17;14.03;;;;;;;;;;10354816;28;20201;-74
2023/12/16 01:23:04;;;;;;;31.90;15.50;;;;;;;;;;10357399;28;20284;-74
2023/12/16 01:28:05;;;;;;;33.10;14.53;;;;;;;;;;10357180;28;20484;-74
2023/12/16 01:33:05;;;;;;;31.37;14.00;;;;;;;;;;10357103;28;20718;-74
2023/12/16 01:38:05;;;;;;;37.03;15.43;;;;;;;;;;10355712;28;20200;-74
2023/12/16 01:43:10;;;;;;;33.67;13.73;;;;;;;;;;10356604;28;20444;-74
2023/12/16 01:48:11;;;;;;;30.23;13.63;;;;;;;;;;10347663;28;20480;-73
2023/12/16 01:53:12;;;;;;;29.40;13.30;;;;;;;;;;10354823;28;20186;-74
2023/12/16 01:58:12;;;;;;;35.28;13.95;;;;;;;;;;10355880;28;20562;-75
2023/12/16 02:03:14;;;;;;;22.40;12.20;;;;;;;;;;10353108;28;20193;-74
2023/12/16 02:08:14;;;;;;;28.30;13.33;;;;;;;;;;10356637;28;20225;-74
2023/12/16 02:13:14;;;;;;;26.97;11.80;;;;;;;;;;10355353;28;20193;-74
2023/12/16 02:18:14;;;;;;;28.77;12.47;;;;;;;;;;10352680;28;20455;-74
2023/12/16 02:23:16;;;;;;;23.77;11.23;;;;;;;;;;10355812;28;20465;-74
2023/12/16 02:28:16;;;;;;;18.73;9.57;;;;;;;;;;10355683;28;20242;-74
2023/12/16 02:33:17;;;;;;;18.97;9.73;;;;;;;;;;10354548;28;20189;-74
2023/12/16 02:38:17;;;;;;;17.43;8.23;;;;;;;;;;10355993;28;20189;-74
2023/12/16 02:43:18;;;;;;;21.37;7.00;;;;;;;;;;10354639;28;20204;-74
2023/12/16 02:48:18;;;;;;;15.33;6.93;;;;;;;;;;10350436;28;20316;-74
2023/12/16 02:53:18;;;;;;;19.33;7.53;;;;;;;;;;10357601;28;20690;-74
2023/12/16 02:58:19;;;;;;;18.43;8.10;;;;;;;;;;10362697;28;20193;-74
2023/12/16 03:03:19;;;;;;;16.20;6.47;;;;;;;;;;10361765;28;20200;-74
2023/12/16 03:08:19;;;;;;;18.20;6.70;;;;;;;;;;10362102;28;20275;-74
2023/12/16 03:13:19;;;;;;;17.10;7.10;;;;;;;;;;10361988;28;20181;-74
2023/12/16 03:18:19;;;;;;;17.53;6.67;;;;;;;;;;10361978;28;20221;-74
2023/12/16 03:23:20;;;;;;;16.03;6.50;;;;;;;;;;10360862;28;20502;-75
2023/12/16 03:28:20;;;;;;;13.37;7.10;;;;;;;;;;10362097;28;20309;-74
2023/12/16 03:33:20;;;;;;;16.73;6.80;;;;;;;;;;10360584;28;20811;-74
2023/12/16 03:38:20;;;;;;;18.90;6.77;;;;;;;;;;10362272;28;20204;-74
2023/12/16 03:43:20;;;;;;;16.03;6.30;;;;;;;;;;10361335;28;20288;-74
2023/12/16 03:48:21;;;;;;;15.30;5.70;;;;;;;;;;10359020;28;20213;-74
2023/12/16 03:53:21;;;;;;;11.50;5.80;;;;;;;;;;10360330;28;20189;-75
2023/12/16 03:58:21;;;;;;;10.60;5.50;;;;;;;;;;10356782;28;20193;-74
2023/12/16 04:03:21;;;;;;;15.57;5.60;;;;;;;;;;10359956;28;20524;-74
2023/12/16 04:08:22;;;;;;;11.13;4.77;;;;;;;;;;10359818;28;20579;-74
2023/12/16 04:13:22;;;;;;;16.53;5.87;;;;;;;;;;10358967;28;20512;-74
2023/12/16 04:18:23;;;;;;;12.93;5.27;;;;;;;;;;10359426;28;20440;-74
2023/12/16 04:23:23;;;;;;;16.57;5.23;;;;;;;;;;10359358;28;20332;-74
2023/12/16 04:28:23;;;;;;;12.93;4.43;;;;;;;;;;10353923;28;20323;-74
2023/12/16 04:33:24;;;;;;;9.83;3.90;;;;;;;;;;10358710;28;20185;-74
2023/12/16 04:38:24;;;;;;;12.30;5.03;;;;;;;;;;10358945;28;20602;-74
2023/12/16 04:43:24;;;;;;;16.40;4.27;;;;;;;;;;10355747;28;20691;-73
2023/12/16 04:48:24;;;;;;;13.43;4.50;;;;;;;;;;10351770;28;20526;-74
2023/12/16 04:53:24;;;;;;;19.27;4.33;;;;;;;;;;10347739;28;20675;-74
2023/12/16 04:58:28;;;;;;;13.17;4.90;;;;;;;;;;10347282;28;20288;-74
2023/12/16 05:03:28;;;;;;;12.63;4.53;;;;;;;;;;10351235;28;20205;-74
2023/12/16 05:08:28;;;;;;;9.13;4.33;;;;;;;;;;10351970;28;20192;-74
2023/12/16 05:13:28;;;;;;;15.03;4.63;;;;;;;;;;10349972;28;20205;-74
2023/12/16 05:18:28;;;;;;;6.80;4.07;;;;;;;;;;10351779;28;20189;-74
2023/12/16 05:23:29;;;;;;;15.80;5.27;;;;;;;;;;10350677;28;20545;-74
2023/12/16 05:28:31;;;;;;;14.13;4.93;;;;;;;;;;10350269;28;20225;-75
2023/12/16 05:33:31;;;;;;;15.73;4.17;;;;;;;;;;10340163;28;20206;-75
2023/12/16 05:38:31;;;;;;;14.60;4.50;;;;;;;;;;10350760;28;20188;-74
2023/12/16 05:43:33;;;;;;;11.63;4.93;;;;;;;;;;10349987;28;20418;-74
2023/12/16 05:48:35;;;;;;;18.33;4.90;;;;;;;;;;10350128;28;20181;-75
2023/12/16 05:53:35;;;;;;;16.57;5.33;;;;;;;;;;10349945;28;20678;-74
2023/12/16 05:58:38;;;;;;;8.47;4.60;;;;;;;;;;10349630;28;20197;-75
2023/12/16 06:03:38;;;;;;;18.13;5.30;;;;;;;;;;10337393;28;20201;-75
2023/12/16 06:08:40;;;;;;;16.43;5.43;;;;;;;;;;10349982;28;20192;-74
2023/12/16 06:13:40;;;;;;;21.73;7.17;;;;;;;;;;10348586;28;20196;-75
2023/12/16 06:18:40;;;;;;;13.83;5.43;;;;;;;;;;10349964;28;20200;-75
2023/12/16 06:23:41;;;;;;;17.60;6.43;;;;;;;;;;10346727;28;20247;-76
2023/12/16 06:28:42;;;;;;;10.70;5.30;;;;;;;;;;10344834;28;20239;-75
2023/12/16 06:33:42;;;;;;;16.87;5.27;;;;;;;;;;10349929;28;20467;-74
2023/12/16 06:38:42;;;;;;;17.40;6.33;;;;;;;;;;10344137;28;20292;-75
2023/12/16 06:43:42;;;;;;;13.00;6.20;;;;;;;;;;10346609;28;21267;-75
2023/12/16 06:48:42;;;;;;;13.93;6.37;;;;;;;;;;10326572;28;20631;-75
2023/12/16 06:53:43;;;;;;;15.60;8.47;;;;;;;;;;10344025;28;20194;-74
2023/12/16 06:58:43;;;;;;;11.63;5.83;;;;;;;;;;10349677;28;20214;-74
2023/12/16 07:03:44;;;;;;;14.30;5.53;;;;;;;;;;10350423;28;20194;-74
2023/12/16 07:08:44;;;;;;;14.20;5.57;;;;;;;;;;10345591;28;20198;-74
2023/12/16 07:13:44;;;;;;;11.50;5.73;;;;;;;;;;10348847;28;20210;-75
2023/12/16 07:18:45;;;;;;;15.30;5.90;;;;;;;;;;10349321;28;20260;-75
2023/12/16 07:23:45;;;;;;;13.63;5.83;;;;;;;;;;10348140;28;20206;-75
2023/12/16 07:28:45;;;;;;;15.23;5.03;;;;;;;;;;10344605;28;20232;-74
2023/12/16 07:33:45;;;;;;;15.37;6.23;;;;;;;;;;10335269;28;20178;-75
2023/12/16 07:38:46;;;;;;;17.00;6.20;;;;;;;;;;10337726;28;20269;-75
2023/12/16 07:43:46;;;;;;;13.83;6.30;;;;;;;;;;10335503;28;20565;-75
2023/12/16 07:48:46;;;;;;;13.53;5.53;;;;;;;;;;10338313;28;20699;-74
2023/12/16 07:53:48;;;;;;;14.77;6.13;;;;;;;;;;10334921;28;20234;-74
2023/12/16 07:58:49;;;;;;;15.77;5.67;;;;;;;;;;10351500;28;20663;-74
2023/12/16 08:03:50;;;;;;;19.63;6.33;;;;;;;;;;10351751;28;20190;-75
2023/12/16 08:08:50;;;;;;;17.50;5.23;;;;;;;;;;10357211;28;20182;-75
2023/12/16 08:13:50;;;;;;;16.13;5.50;;;;;;;;;;10355982;28;20696;-74
2023/12/16 08:18:50;;;;;;;17.63;6.57;;;;;;;;;;10354682;28;21069;-75
2023/12/16 08:23:50;;;;;;;13.20;5.83;;;;;;;;;;10343918;28;21037;-75
2023/12/16 08:28:51;;;;;;;17.10;6.40;;;;;;;;;;10337831;28;20283;-75
2023/12/16 08:33:51;;;;;;;19.53;8.60;;;;;;;;;;10345282;28;20213;-75
2023/12/16 08:38:52;;;;;;;14.00;5.77;;;;;;;;;;10345337;28;20205;-75
2023/12/16 08:43:52;;;;;;;14.60;6.20;;;;;;;;;;10351338;28;20601;-75
2023/12/16 08:48:54;;;;;;;18.63;5.93;;;;;;;;;;10354898;28;20313;-74
2023/12/16 08:53:54;;;;;;;17.57;7.40;;;;;;;;;;10352752;28;20885;-75
2023/12/16 08:58:54;;;;;;;16.07;5.70;;;;;;;;;;10355349;28;20237;-75
2023/12/16 09:03:54;;;;;;;16.00;6.20;;;;;;;;;;10354427;28;20364;-75
2023/12/16 09:08:55;;;;;;;16.43;5.33;;;;;;;;;;10356126;28;20308;-75
2023/12/16 09:13:55;;;;;;;14.33;5.90;;;;;;;;;;10355886;28;20194;-74
2023/12/16 09:18:55;;;;;;;13.20;5.27;;;;;;;;;;10352840;28;20281;-75
2023/12/16 09:23:55;;;;;;;15.27;6.40;;;;;;;;;;10357735;28;20330;-75
2023/12/16 09:28:56;;;;;;;12.33;8.57;;;;;;;;;;10350533;28;20229;-75
2023/12/16 09:33:56;;;;;;;9.73;5.47;;;;;;;;;;10355318;28;20202;-76
2023/12/16 09:38:57;;;;;;;20.13;5.53;;;;;;;;;;10354159;28;20600;-74
2023/12/16 09:44:03;;;;;;;14.03;5.47;;;;;;;;;;10349099;28;20232;-74
2023/12/16 09:49:03;;;;;;;16.83;5.83;;;;;;;;;;10339323;28;20181;-75
2023/12/16 09:54:03;;;;;;;9.73;5.33;;;;;;;;;;10350137;28;20651;-74
2023/12/16 09:59:03;;;;;;;13.50;5.70;;;;;;;;;;10346954;28;20192;-75
2023/12/16 10:04:05;;;;;;;14.97;5.70;;;;;;;;;;10353912;28;21092;-75
2023/12/16 10:09:05;;;;;;;17.87;6.27;;;;;;;;;;10353675;28;20185;-75
2023/12/16 10:14:05;;;;;;;13.47;5.00;;;;;;;;;;10349326;28;20190;-75
2023/12/16 10:19:05;;;;;;;19.60;8.33;;;;;;;;;;10348647;28;20252;-75
2023/12/16 10:24:05;;;;;;;27.60;8.80;;;;;;;;;;10350054;28;20481;-75
2023/12/16 10:29:06;;;;;;;13.87;6.13;;;;;;;;;;10347626;28;20323;-75
2023/12/16 10:34:06;;;;;;;13.83;5.93;;;;;;;;;;10352668;28;20199;-74
2023/12/16 10:39:25;;;;;;;16.90;6.00;;;;;;;;;;10352282;28;20212;-75
2023/12/16 11:27:36;;;;;;;11.53;4.77;;;;;;;;;;10252919;28;20335;-74
2023/12/16 11:32:37;;;;;;;16.33;4.83;;;;;;;;;;10341205;28;20213;-74
2023/12/16 11:37:37;;;;;;;11.80;4.70;;;;;;;;;;10353709;28;20973;-74
2023/12/16 11:42:43;;;;;;;14.67;4.73;;;;;;;;;;10353809;28;20217;-74
2023/12/16 11:47:47;;;;;;;12.10;4.50;;;;;;;;;;10347714;28;20612;-74
2023/12/16 11:52:48;;;;;;;12.53;5.00;;;;;;;;;;10357107;28;20190;-74
2023/12/16 11:57:48;;;;;;;11.07;4.33;;;;;;;;;;10355574;28;20225;-74
2023/12/16 12:02:50;;;;;;;12.90;5.20;;;;;;;;;;10357580;28;20194;-74
2023/12/16 12:07:50;;;;;;;17.23;5.17;;;;;;;;;;10355919;28;20217;-74
2023/12/16 12:12:50;;;;;;;15.40;5.10;;;;;;;;;;10356748;28;20186;-74
2023/12/16 12:17:50;;;;;;;13.47;5.27;;;;;;;;;;10356381;28;20256;-74
2023/12/16 12:22:51;;;;;;;12.23;5.23;;;;;;;;;;10355295;28;20261;-74
2023/12/16 12:27:51;;;;;;;14.77;5.27;;;;;;;;;;10354928;28;20237;-74
2023/12/16 12:32:51;;;;;;;15.13;4.53;;;;;;;;;;10356497;28;20182;-74
2023/12/16 12:37:51;;;;;;;15.10;5.70;;;;;;;;;;10355112;28;20702;-74
2023/12/16 12:42:55;;;;;;;14.43;5.20;;;;;;;;;;10355384;28;20251;-74
2023/12/16 12:48:07;;;;;;;12.53;4.60;;;;;;;;;;10354883;28;20257;-74
2023/12/16 12:53:17;;;;;;;12.57;5.20;;;;;;;;;;10355043;28;20284;-74
2023/12/16 12:58:18;;;;;;;13.67;6.00;;;;;;;;;;10367810;28;21144;-74
2023/12/16 13:03:18;;;;;;;18.13;5.47;;;;;;;;;;10354548;28;20202;-74
2023/12/16 13:08:19;;;;;;;13.63;5.17;;;;;;;;;;10347898;28;20238;-74
2023/12/16 13:13:19;;;;;;;12.07;4.57;;;;;;;;;;10339338;28;20200;-74
2023/12/16 13:18:19;;;;;;;17.73;5.17;;;;;;;;;;10341056;28;20202;-74
2023/12/16 13:23:20;;;;;;;20.37;5.70;;;;;;;;;;10333641;28;20204;-74
2023/12/16 13:28:20;;;;;;;13.70;5.00;;;;;;;;;;10352844;28;20295;-74
2023/12/16 13:33:20;;;;;;;18.60;5.70;;;;;;;;;;10347000;28;20197;-75
2023/12/16 13:38:20;;;;;;;15.63;5.80;;;;;;;;;;10331953;28;20197;-75
2023/12/16 13:43:21;;;;;;;18.00;5.73;;;;;;;;;;10338771;28;20681;-74
2023/12/16 13:48:21;;;;;;;15.57;5.43;;;;;;;;;;10350417;28;20225;-75
2023/12/16 13:53:21;;;;;;;20.40;8.20;;;;;;;;;;10342485;28;20278;-75
2023/12/16 13:58:22;;;;;;;18.67;6.10;;;;;;;;;;10345607;28;20205;-75
2023/12/16 14:03:22;;;;;;;19.13;7.63;;;;;;;;;;10348310;28;20205;-75
2023/12/16 14:08:22;;;;;;;18.13;6.30;;;;;;;;;;10350401;28;20209;-75
2023/12/16 14:13:23;;;;;;;16.63;7.77;;;;;;;;;;10348411;28;20251;-75
2023/12/16 14:18:23;;;;;;;24.10;8.43;;;;;;;;;;10323988;28;20238;-75
2023/12/16 14:23:23;;;;;;;19.63;9.53;;;;;;;;;;10335618;28;20190;-74
2023/12/16 14:28:24;;;;;;;17.33;6.67;;;;;;;;;;10341273;28;20757;-75
2023/12/16 14:33:24;;;;;;;19.67;5.93;;;;;;;;;;10351155;28;20619;-74
2023/12/16 14:38:25;;;;;;;16.43;6.90;;;;;;;;;;10350528;28;20586;-74
2023/12/16 14:43:25;;;;;;;21.70;6.83;;;;;;;;;;10350891;28;20567;-74
2023/12/16 14:48:25;;;;;;;15.27;6.57;;;;;;;;;;10357129;28;20216;-75
2023/12/16 14:53:25;;;;;;;18.17;7.37;;;;;;;;;;10359588;28;20491;-75
2023/12/16 14:58:27;;;;;;;16.73;7.80;;;;;;;;;;10359060;28;20592;-75
2023/12/16 15:03:27;;;;;;;60.27;24.43;;;;;;;;;;10358872;28;20208;-75
2023/12/16 15:08:28;;;;;;;21.90;9.20;;;;;;;;;;10359040;28;20232;-75
2023/12/16 15:13:28;;;;;;;18.47;7.93;;;;;;;;;;10356493;28;20559;-75
2023/12/16 15:18:28;;;;;;;19.13;7.50;;;;;;;;;;10355978;28;20205;-76
2023/12/16 15:23:28;;;;;;;16.10;8.37;;;;;;;;;;10358450;28;20193;-75
2023/12/16 15:28:28;;;;;;;15.83;7.07;;;;;;;;;;10357856;28;20237;-75
2023/12/16 15:33:29;;;;;;;16.97;6.40;;;;;;;;;;10357594;28;20193;-75
2023/12/16 15:38:29;;;;;;;20.10;8.43;;;;;;;;;;10357764;28;20853;-75
2023/12/16 15:43:29;;;;;;;17.67;9.27;;;;;;;;;;10357228;28;20214;-75
2023/12/16 15:48:29;;;;;;;19.60;8.60;;;;;;;;;;10357227;28;20989;-75
2023/12/16 15:53:30;;;;;;;18.70;7.57;;;;;;;;;;10356406;28;20192;-75
2023/12/16 15:58:30;;;;;;;22.37;8.30;;;;;;;;;;10357031;28;20240;-75
2023/12/16 16:03:30;;;;;;;17.93;8.20;;;;;;;;;;10355521;28;20666;-75
2023/12/16 16:08:31;;;;;;;16.17;7.13;;;;;;;;;;10358112;28;20213;-75
2023/12/16 16:13:31;;;;;;;12.77;6.47;;;;;;;;;;10357593;28;20272;-75
2023/12/16 16:18:31;;;;;;;15.40;7.30;;;;;;;;;;10357073;28;20217;-75
2023/12/16 16:23:32;;;;;;;15.87;7.17;;;;;;;;;;10357192;28;20519;-75
2023/12/16 16:28:32;;;;;;;20.50;7.17;;;;;;;;;;10356079;28;20711;-75
2023/12/16 16:33:32;;;;;;;15.67;7.03;;;;;;;;;;10356605;28;20193;-75
2023/12/16 16:38:32;;;;;;;14.73;5.40;;;;;;;;;;10356719;28;20890;-75
2023/12/16 16:43:32;;;;;;;16.23;5.57;;;;;;;;;;10355924;28;20814;-75
2023/12/16 16:48:33;;;;;;;14.83;6.70;;;;;;;;;;10356017;28;20216;-75
2023/12/16 16:53:34;;;;;;;17.73;6.13;;;;;;;;;;10355961;28;20181;-75
2023/12/16 16:58:36;;;;;;;11.43;5.77;;;;;;;;;;10355312;28;20190;-75
2023/12/16 17:03:36;;;;;;;14.13;6.10;;;;;;;;;;10354908;28;20256;-75
2023/12/16 17:08:36;;;;;;;15.30;5.87;;;;;;;;;;10355511;28;20320;-74
2023/12/16 17:13:36;;;;;;;11.17;4.10;;;;;;;;;;10354355;28;20284;-75
2023/12/16 17:18:36;;;;;;;18.33;6.07;;;;;;;;;;10355683;28;20256;-75
2023/12/16 17:23:37;;;;;;;15.13;5.13;;;;;;;;;;10353898;28;20198;-75
2023/12/16 17:28:38;;;;;;;11.73;4.40;;;;;;;;;;10353023;28;20225;-75
2023/12/16 17:33:39;;;;;;;22.50;7.03;;;;;;;;;;10354295;28;20201;-75
2023/12/16 17:38:39;;;;;;;21.90;6.73;;;;;;;;;;10354438;28;20181;-75
2023/12/16 17:43:39;;;;;;;19.47;8.60;;;;;;;;;;10354246;28;20280;-75
2023/12/16 17:48:39;;;;;;;11.37;7.00;;;;;;;;;;10354000;28;20205;-74
2023/12/16 17:53:39;;;;;;;13.70;5.63;;;;;;;;;;10353705;28;20659;-74
2023/12/16 17:58:40;;;;;;;40.80;17.23;;;;;;;;;;10355643;28;20200;-75
2023/12/16 18:03:40;;;;;;;59.77;24.77;;;;;;;;;;10353270;28;20193;-75
2023/12/16 18:08:40;;;;;;;57.47;25.30;;;;;;;;;;10353316;28;20229;-75
2023/12/16 18:13:41;;;;;;;16.13;5.33;;;;;;;;;;10352667;28;20268;-75
2023/12/16 18:18:41;;;;;;;14.27;5.67;;;;;;;;;;10353284;28;20672;-75
2023/12/16 18:23:42;;;;;;;15.53;5.87;;;;;;;;;;10352251;28;20204;-75
2023/12/16 18:28:44;;;;;;;19.20;6.50;;;;;;;;;;10352520;28;20225;-75
2023/12/16 18:33:44;;;;;;;18.73;5.10;;;;;;;;;;10352503;28;20305;-75
2023/12/16 18:38:44;;;;;;;15.93;5.27;;;;;;;;;;10352716;28;20190;-74
2023/12/16 18:43:46;;;;;;;14.10;4.50;;;;;;;;;;10352012;28;20202;-75
2023/12/16 18:48:48;;;;;;;8.97;3.50;;;;;;;;;;10352624;28;20221;-75
2023/12/16 18:53:48;;;;;;;16.07;4.97;;;;;;;;;;10351823;28;20190;-75
2023/12/16 18:58:50;;;;;;;13.17;4.77;;;;;;;;;;10352403;28;20190;-75
2023/12/16 19:03:50;;;;;;;13.77;4.07;;;;;;;;;;10352494;28;20245;-74
2023/12/16 19:08:50;;;;;;;15.30;4.80;;;;;;;;;;10351692;28;20304;-75
2023/12/16 19:13:50;;;;;;;14.70;5.10;;;;;;;;;;10351820;28;20190;-75
2023/12/16 19:18:51;;;;;;;8.10;4.03;;;;;;;;;;10351915;28;20194;-75
2023/12/16 19:23:51;;;;;;;14.20;5.33;;;;;;;;;;10351219;28;20198;-75
2023/12/16 19:28:51;;;;;;;11.67;5.13;;;;;;;;;;10351636;28;20489;-75
2023/12/16 19:33:51;;;;;;;21.43;5.30;;;;;;;;;;10354839;28;20277;-74
2023/12/16 19:38:52;;;;;;;18.03;6.10;;;;;;;;;;10359020;28;20278;-75
2023/12/16 19:43:52;;;;;;;12.57;5.73;;;;;;;;;;10358412;28;20578;-75
2023/12/16 19:48:52;;;;;;;16.83;7.47;;;;;;;;;;10359008;28;20272;-75
2023/12/16 19:53:52;;;;;;;12.97;5.03;;;;;;;;;;10357253;28;20190;-75
2023/12/16 19:58:52;;;;;;;13.77;5.27;;;;;;;;;;10358026;28;20464;-75
2023/12/16 20:03:53;;;;;;;16.33;6.80;;;;;;;;;;10357543;28;20633;-75
2023/12/16 20:08:53;;;;;;;13.97;5.80;;;;;;;;;;10357562;28;20309;-73
2023/12/16 20:13:53;;;;;;;17.30;6.37;;;;;;;;;;10357310;28;20192;-75
2023/12/16 20:18:54;;;;;;;17.10;5.77;;;;;;;;;;10357779;28;20196;-75
2023/12/16 20:23:54;;;;;;;19.90;6.50;;;;;;;;;;10355947;28;20225;-75
2023/12/16 20:28:54;;;;;;;18.60;6.47;;;;;;;;;;10357070;28;21410;-75
2023/12/16 20:33:56;;;;;;;18.53;6.47;;;;;;;;;;10356660;28;20182;-75
2023/12/16 20:44:15;;;;;;;17.50;6.30;;;;;;;;;;10355870;28;20208;-75
2023/12/16 20:49:17;;;;;;;19.13;7.30;;;;;;;;;;10355791;28;20201;-75
2023/12/16 20:54:17;;;;;;;18.23;6.40;;;;;;;;;;10356019;28;20228;-75
2023/12/16 20:59:17;;;;;;;17.30;6.27;;;;;;;;;;10354494;28;20743;-74
2023/12/16 21:04:18;;;;;;;19.10;7.27;;;;;;;;;;10355266;28;20204;-74
2023/12/16 21:09:18;;;;;;;22.10;7.07;;;;;;;;;;10351805;28;20201;-75
2023/12/16 21:14:18;;;;;;;16.47;7.03;;;;;;;;;;10354054;28;20276;-75
2023/12/16 21:19:19;;;;;;;13.10;6.00;;;;;;;;;;10355039;28;20194;-74
2023/12/16 21:24:19;;;;;;;18.07;7.03;;;;;;;;;;10354167;28;20201;-74
2023/12/16 21:29:19;;;;;;;14.50;6.27;;;;;;;;;;10369869;28;20237;-75
2023/12/16 21:34:19;;;;;;;14.00;6.33;;;;;;;;;;10353752;28;20209;-75
2023/12/16 21:39:20;;;;;;;13.80;6.30;;;;;;;;;;10354673;28;20634;-75
2023/12/16 21:44:21;;;;;;;13.90;5.97;;;;;;;;;;10353800;28;20251;-75
2023/12/16 21:49:21;;;;;;;16.63;6.30;;;;;;;;;;10353903;28;20733;-75
2023/12/16 21:54:21;;;;;;;22.60;8.60;;;;;;;;;;10353582;28;20296;-76
2023/12/16 21:59:21;;;;;;;11.73;5.37;;;;;;;;;;10353485;28;20268;-75
2023/12/16 22:10:37;;;;;;;14.83;7.77;;;;;;;;;;10227916;28;20195;-76
2023/12/16 22:15:37;;;;;;;10.73;5.03;;;;;;;;;;10345805;28;20205;-76
2023/12/16 22:20:38;;;;;;;11.73;5.73;;;;;;;;;;10349233;28;20701;-76
2023/12/16 22:25:38;;;;;;;10.60;5.10;;;;;;;;;;10348185;28;20411;-75
2023/12/16 22:30:46;;;;;;;12.27;5.30;;;;;;;;;;10351343;28;20197;-75
2023/12/16 22:35:47;;;;;;;9.80;5.37;;;;;;;;;;10346252;28;20190;-75
2023/12/16 22:40:47;;;;;;;13.63;5.50;;;;;;;;;;10352689;28;20186;-75
2023/12/16 22:45:47;;;;;;;8.87;5.03;;;;;;;;;;10351871;28;20696;-75
2023/12/16 22:50:48;;;;;;;11.13;6.00;;;;;;;;;;10352422;28;20213;-75
2023/12/16 22:55:48;;;;;;;11.80;6.03;;;;;;;;;;10349881;28;21662;-75
2023/12/16 23:00:48;;;;;;;11.80;5.73;;;;;;;;;;10344410;28;20182;-75
2023/12/16 23:05:48;;;;;;;11.60;5.37;;;;;;;;;;10344134;28;20283;-75
2023/12/16 23:10:48;;;;;;;16.13;4.93;;;;;;;;;;10360082;28;20445;-75
2023/12/16 23:15:49;;;;;;;12.67;4.77;;;;;;;;;;10359514;28;20200;-75
2023/12/16 23:20:49;;;;;;;6.93;4.63;;;;;;;;;;10359836;28;20208;-75
2023/12/16 23:25:49;;;;;;;10.57;4.70;;;;;;;;;;10358760;28;20218;-75
2023/12/16 23:30:50;;;;;;;6.93;4.30;;;;;;;;;;10359560;28;20336;-75
2023/12/16 23:35:50;;;;;;;9.00;4.90;;;;;;;;;;10358480;28;20190;-75
2023/12/16 23:40:50;;;;;;;7.70;3.67;;;;;;;;;;10359394;28;20194;-75
2023/12/16 23:45:51;;;;;;;12.67;4.53;;;;;;;;;;10358214;28;20249;-74
2023/12/16 23:50:51;;;;;;;9.73;4.97;;;;;;;;;;10356212;28;20190;-75
2023/12/16 23:55:51;;;;;;;8.83;4.03;;;;;;;;;;10358297;28;20196;-75
